KHON/HON METAR and TAF weather

Enter ICAO airport designator
Station Type Date Time Source
KHON METAR 2022/11/30 17:55 UTC NOAA

KHON 301755Z AUTO 30016G22KT 10SM CLR M06/M15 A3027 RMK AO2 PK WND 32026/1658 SLP272 T10611150 11061 21117 51015


Station Type Date Time Source
KHON Decoded METAR 2022/11/30 17:55 UTC NOAA

HURON REGIONAL AIRPORT, SD, United States (KHON) 44-23N 098-14W 390M
Nov 30, 2022 - 12:55 PM EST / 2022.11.30 1755 UTC
Wind: from the WNW (300 degrees) at 18 MPH (16 KT) gusting to 25 MPH (22 KT):0
Visibility: 10 mile(s):0
Sky conditions: clear
Temperature: 21.0 F (-6.1 C)
Windchill: 6 F (-14 C):1
Dew Point: 5.0 F (-15.0 C)
Relative Humidity: 49%
Pressure (altimeter): 30.27 in. Hg (1025 hPa)
Pressure tendency: 0.04 inches (1.5 hPa) higher than three hours ago
ob: KHON 301755Z AUTO 30016G22KT 10SM CLR M06/M15 A3027 RMK AO2 PK WND 32026/1658 SLP272 T10611150 11061 21117 51015
cycle: 18

Station Type Date Time Source
KHON TAF 2022/11/30 18:22 UTC NOAA

TAF KHON 301720Z 3018/0118 31015G28KT P6SM SKC
FM302100 26012KT P6SM SKC
FM302300 VRB04KT P6SM SKC
FM010400 13007KT P6SM FEW250
FM010600 14012G20KT P6SM SCT250
FM010900 15018G30KT P6SM SCT230 WS020/19050KT

Example: see airport list